createdAt,value
2018-12-20T00:00:21.410Z,2
2018-12-20T00:01:21.407Z,2
2018-12-20T00:02:21.529Z,2
2018-12-20T00:03:21.559Z,2
2018-12-20T00:04:21.417Z,2
2018-12-20T00:05:21.448Z,2
2018-12-20T00:06:21.471Z,2
2018-12-20T00:07:21.399Z,2
2018-12-20T00:08:21.607Z,2
2018-12-20T00:09:21.470Z,2
2018-12-20T00:10:21.429Z,2
2018-12-20T00:11:21.434Z,2
2018-12-20T00:12:21.400Z,2
2018-12-20T00:13:21.483Z,2
2018-12-20T00:14:21.446Z,2
2018-12-20T00:15:21.438Z,2
2018-12-20T00:16:21.550Z,2
2018-12-20T00:17:21.498Z,2
2018-12-20T00:18:21.422Z,2
2018-12-20T00:19:21.498Z,2
2018-12-20T00:20:21.530Z,2
2018-12-20T00:21:21.497Z,2
2018-12-20T00:22:21.410Z,2
2018-12-20T00:23:21.441Z,2
2018-12-20T00:24:21.438Z,2
2018-12-20T00:25:21.506Z,2
2018-12-20T00:26:21.461Z,2
2018-12-20T00:27:21.435Z,2
2018-12-20T00:28:21.473Z,2
2018-12-20T00:29:21.471Z,2
2018-12-20T00:30:21.633Z,2
2018-12-20T00:31:21.460Z,2
2018-12-20T00:32:21.409Z,2
2018-12-20T00:33:21.489Z,2
2018-12-20T00:34:21.468Z,2
2018-12-20T00:35:21.606Z,2
2018-12-20T00:36:21.707Z,2
2018-12-20T00:37:21.416Z,2
2018-12-20T00:38:21.402Z,2
2018-12-20T00:39:21.465Z,2
2018-12-20T00:40:21.470Z,2
2018-12-20T00:41:21.507Z,2
2018-12-20T00:42:21.559Z,2
2018-12-20T00:43:21.474Z,2
2018-12-20T00:47:21.601Z,2
2018-12-20T00:48:21.585Z,2
2018-12-20T00:49:21.542Z,2
2018-12-20T00:50:21.392Z,2
2018-12-20T00:51:21.400Z,2
2018-12-20T00:52:21.454Z,2
2018-12-20T00:53:21.500Z,2
2018-12-20T00:54:21.516Z,2
2018-12-20T00:55:21.603Z,2
2018-12-20T00:56:21.557Z,2
2018-12-20T00:57:21.442Z,2
2018-12-20T00:58:21.393Z,2
2018-12-20T00:59:21.400Z,2
2018-12-20T01:00:21.420Z,2
2018-12-20T01:01:21.567Z,2
2018-12-20T01:02:21.449Z,2
2018-12-20T01:03:21.483Z,2
2018-12-20T01:04:21.387Z,2
2018-12-20T01:05:21.383Z,2
2018-12-20T01:06:21.515Z,2
2018-12-20T01:07:21.505Z,2
2018-12-20T01:08:21.380Z,2
2018-12-20T01:09:21.508Z,2
2018-12-20T01:10:21.443Z,2
2018-12-20T01:11:21.490Z,2
2018-12-20T01:12:21.508Z,2
2018-12-20T01:13:21.559Z,2
2018-12-20T01:14:21.601Z,2
2018-12-20T01:15:21.445Z,2
2018-12-20T01:16:21.543Z,2
2018-12-20T01:17:21.461Z,2
2018-12-20T01:18:21.373Z,2
2018-12-20T01:19:21.389Z,2
2018-12-20T01:20:21.462Z,2
2018-12-20T01:21:21.583Z,2
2018-12-20T01:22:21.687Z,2
2018-12-20T01:23:21.402Z,2
2018-12-20T01:24:21.481Z,2
2018-12-20T01:25:21.566Z,2
2018-12-20T01:26:21.380Z,2
2018-12-20T01:27:21.387Z,2
2018-12-20T01:28:21.405Z,2
2018-12-20T01:29:21.380Z,3
2018-12-20T01:30:21.563Z,2
2018-12-20T01:31:21.544Z,2
2018-12-20T01:32:21.382Z,2
2018-12-20T01:33:21.613Z,2
2018-12-20T01:34:21.424Z,2
2018-12-20T01:35:21.640Z,2
2018-12-20T01:36:21.670Z,2
2018-12-20T01:37:22.809Z,3
2018-12-20T01:38:21.700Z,3
2018-12-20T01:39:21.538Z,3
2018-12-20T01:40:21.384Z,3
2018-12-20T01:41:21.449Z,3
2018-12-20T01:42:21.467Z,3
2018-12-20T01:43:21.378Z,3
2018-12-20T01:44:21.606Z,3
2018-12-20T01:45:21.410Z,3
2018-12-20T01:46:21.460Z,2
2018-12-20T01:47:21.384Z,2
2018-12-20T01:48:21.407Z,2
2018-12-20T01:49:21.497Z,2
2018-12-20T01:50:21.416Z,2
2018-12-20T01:51:21.483Z,2
2018-12-20T01:52:21.379Z,2
2018-12-20T01:53:21.445Z,2
2018-12-20T01:54:21.384Z,2
2018-12-20T01:55:21.390Z,2
2018-12-20T01:56:21.455Z,2
2018-12-20T01:57:21.387Z,2
2018-12-20T01:58:21.399Z,2
2018-12-20T01:59:21.497Z,2
2018-12-20T02:00:21.490Z,2
2018-12-20T02:01:21.496Z,2
2018-12-20T02:02:21.475Z,2
2018-12-20T02:03:21.402Z,2
2018-12-20T02:04:21.400Z,2
2018-12-20T02:05:21.398Z,2
2018-12-20T02:06:21.465Z,2
2018-12-20T02:07:21.443Z,2
2018-12-20T02:08:21.396Z,2
2018-12-20T02:09:21.412Z,2
2018-12-20T02:10:21.540Z,2
2018-12-20T02:11:21.395Z,2
2018-12-20T02:12:21.494Z,2
2018-12-20T02:13:21.446Z,2
2018-12-20T02:14:21.412Z,2
2018-12-20T02:15:21.556Z,2
2018-12-20T02:16:21.394Z,2
2018-12-20T02:17:21.391Z,2
2018-12-20T02:18:21.396Z,2
2018-12-20T02:19:21.416Z,2
2018-12-20T02:20:21.485Z,2
2018-12-20T02:21:21.538Z,2
2018-12-20T02:22:21.417Z,2
2018-12-20T02:23:21.389Z,2
2018-12-20T02:24:21.551Z,2
2018-12-20T02:25:21.616Z,2
2018-12-20T02:26:21.433Z,2
2018-12-20T02:27:21.663Z,2
2018-12-20T02:28:21.450Z,2
2018-12-20T02:29:21.408Z,2
2018-12-20T02:30:21.700Z,2
2018-12-20T02:31:21.449Z,2
2018-12-20T02:32:21.398Z,2
2018-12-20T02:33:21.410Z,2
2018-12-20T02:34:21.396Z,2
2018-12-20T02:35:21.636Z,2
2018-12-20T02:36:21.405Z,2
2018-12-20T02:37:21.581Z,2
2018-12-20T02:38:21.614Z,2
2018-12-20T02:39:21.584Z,2
2018-12-20T02:40:21.552Z,2
2018-12-20T02:41:21.435Z,2
2018-12-20T02:42:21.406Z,2
2018-12-20T02:43:21.410Z,2
2018-12-20T02:44:21.522Z,2
2018-12-20T02:45:21.399Z,2
2018-12-20T02:46:21.428Z,2
2018-12-20T02:47:21.411Z,2
2018-12-20T02:48:21.398Z,3
2018-12-20T02:49:21.613Z,3
2018-12-20T02:50:21.597Z,3
2018-12-20T02:51:21.413Z,3
2018-12-20T02:52:21.500Z,3
2018-12-20T02:53:21.603Z,3
2018-12-20T02:54:21.472Z,3
2018-12-20T02:55:21.391Z,3
2018-12-20T02:56:21.480Z,3
2018-12-20T02:57:21.480Z,3
2018-12-20T02:58:21.414Z,3
2018-12-20T02:59:21.393Z,3
2018-12-20T03:00:21.485Z,3
2018-12-20T03:01:21.519Z,3
2018-12-20T03:02:21.732Z,2
2018-12-20T03:03:21.466Z,3
2018-12-20T03:04:21.414Z,3
2018-12-20T03:05:21.391Z,3
2018-12-20T03:06:21.535Z,3
2018-12-20T03:07:21.507Z,3
2018-12-20T03:08:21.412Z,3
2018-12-20T03:09:21.453Z,3
2018-12-20T03:10:21.553Z,3
2018-12-20T03:11:21.395Z,3
2018-12-20T03:12:21.733Z,3
2018-12-20T03:13:21.625Z,3
2018-12-20T03:14:21.602Z,3
2018-12-20T03:15:21.555Z,3
2018-12-20T03:16:21.617Z,3
2018-12-20T03:17:21.442Z,3
2018-12-20T03:18:21.583Z,3
2018-12-20T03:19:21.524Z,3
2018-12-20T03:20:21.497Z,3
2018-12-20T03:21:21.549Z,3
2018-12-20T03:22:21.398Z,3
2018-12-20T03:23:21.401Z,3
2018-12-20T03:24:21.411Z,3
2018-12-20T03:25:21.635Z,3
2018-12-20T03:26:21.509Z,3
2018-12-20T03:27:21.565Z,3
2018-12-20T03:28:21.560Z,3
2018-12-20T03:29:21.388Z,3
2018-12-20T03:30:21.523Z,3
2018-12-20T03:31:21.392Z,3
2018-12-20T03:32:21.728Z,3
2018-12-20T03:33:21.399Z,3
2018-12-20T03:34:21.567Z,3
2018-12-20T03:35:21.675Z,3
2018-12-20T03:36:21.389Z,3
2018-12-20T03:37:21.552Z,3
2018-12-20T03:38:21.791Z,3
2018-12-20T03:39:21.421Z,3
2018-12-20T03:40:21.817Z,3
2018-12-20T03:41:21.412Z,3
2018-12-20T03:42:21.665Z,3
2018-12-20T03:43:21.384Z,3
2018-12-20T03:44:21.412Z,3
2018-12-20T03:45:28.616Z,3
2018-12-20T03:46:21.462Z,3
2018-12-20T03:47:21.399Z,3
2018-12-20T03:48:21.403Z,3
2018-12-20T03:49:21.461Z,3
2018-12-20T03:50:21.424Z,3
2018-12-20T03:51:21.451Z,3
2018-12-20T03:52:21.511Z,3
2018-12-20T03:53:21.448Z,3
2018-12-20T03:54:21.411Z,3
2018-12-20T03:55:21.481Z,3
2018-12-20T03:56:21.636Z,3
2018-12-20T03:57:21.456Z,3
2018-12-20T03:58:21.733Z,3
2018-12-20T03:59:21.526Z,3
2018-12-20T04:00:21.469Z,3
2018-12-20T04:01:21.496Z,3
2018-12-20T04:02:21.501Z,3
2018-12-20T04:03:21.618Z,3
2018-12-20T04:04:21.450Z,3
2018-12-20T04:05:21.422Z,3
2018-12-20T04:06:21.601Z,3
2018-12-20T04:07:21.386Z,3
2018-12-20T04:08:21.736Z,3
2018-12-20T04:09:21.419Z,3
2018-12-20T04:10:21.572Z,3
2018-12-20T04:11:21.388Z,3
2018-12-20T04:12:21.407Z,3
2018-12-20T04:13:21.646Z,3
2018-12-20T04:14:21.390Z,3
2018-12-20T04:15:21.402Z,3
2018-12-20T04:16:21.421Z,3
2018-12-20T04:17:21.402Z,3
2018-12-20T04:18:21.523Z,3
2018-12-20T04:19:21.725Z,3
2018-12-20T04:20:21.585Z,3
2018-12-20T04:21:21.407Z,3
2018-12-20T04:22:21.464Z,3
2018-12-20T04:23:21.408Z,4
2018-12-20T04:24:21.699Z,4
2018-12-20T04:25:21.444Z,4
2018-12-20T04:26:21.386Z,3
2018-12-20T04:27:21.406Z,3
2018-12-20T04:28:21.802Z,3
2018-12-20T04:29:21.645Z,3
2018-12-20T04:30:21.677Z,3
2018-12-20T04:31:21.796Z,3
2018-12-20T04:32:21.528Z,3
2018-12-20T04:33:21.711Z,3
2018-12-20T04:34:21.713Z,3
2018-12-20T04:35:21.607Z,3
2018-12-20T04:36:21.875Z,3
2018-12-20T04:37:21.730Z,3
2018-12-20T04:38:21.649Z,3
2018-12-20T04:39:21.691Z,3
2018-12-20T04:40:21.607Z,3
2018-12-20T04:41:21.638Z,3
2018-12-20T04:42:21.873Z,3
2018-12-20T04:43:21.565Z,3
2018-12-20T04:44:21.544Z,4
2018-12-20T04:45:21.621Z,3
2018-12-20T04:46:21.489Z,3
2018-12-20T04:47:21.487Z,3
2018-12-20T04:48:21.407Z,3
2018-12-20T04:49:21.393Z,3
2018-12-20T04:50:21.406Z,3
2018-12-20T04:51:21.670Z,3
2018-12-20T04:52:21.560Z,3
2018-12-20T04:53:21.451Z,3
2018-12-20T04:54:21.387Z,3
2018-12-20T04:55:21.452Z,3
2018-12-20T04:56:21.392Z,3
2018-12-20T04:57:21.494Z,3
2018-12-20T04:58:21.699Z,3
2018-12-20T04:59:21.654Z,3
2018-12-20T05:00:21.583Z,3
2018-12-20T05:01:21.384Z,3
2018-12-20T05:02:21.424Z,3
2018-12-20T05:03:21.480Z,3
2018-12-20T05:04:21.389Z,3
2018-12-20T05:05:21.725Z,3
2018-12-20T05:06:21.409Z,3
2018-12-20T05:07:21.628Z,3
2018-12-20T05:08:21.646Z,3
2018-12-20T05:09:21.478Z,3
2018-12-20T05:10:21.393Z,3
2018-12-20T05:11:21.431Z,3
2018-12-20T05:12:21.627Z,3
2018-12-20T05:13:21.459Z,3
2018-12-20T05:14:21.551Z,3
2018-12-20T05:15:21.429Z,3
2018-12-20T05:16:21.482Z,3
2018-12-20T05:17:21.383Z,3
2018-12-20T05:18:21.601Z,3
2018-12-20T05:19:21.591Z,3
2018-12-20T05:20:21.618Z,3
2018-12-20T05:21:21.838Z,3
2018-12-20T05:22:21.388Z,3
2018-12-20T05:23:21.630Z,3
2018-12-20T05:24:21.964Z,3
2018-12-20T05:25:21.416Z,3
2018-12-20T05:26:21.626Z,4
2018-12-20T05:27:21.411Z,3
2018-12-20T05:28:21.604Z,3
2018-12-20T05:29:21.599Z,3
2018-12-20T05:30:21.591Z,3
2018-12-20T05:31:21.384Z,3
2018-12-20T05:32:21.539Z,3
2018-12-20T05:33:21.441Z,3
2018-12-20T05:34:21.610Z,3
2018-12-20T05:35:21.422Z,3
2018-12-20T05:36:21.638Z,3
2018-12-20T05:37:21.655Z,3
2018-12-20T05:38:21.428Z,4
2018-12-20T05:39:21.431Z,3
2018-12-20T05:40:21.461Z,3
2018-12-20T05:41:21.398Z,3
2018-12-20T05:42:21.640Z,3
2018-12-20T05:43:21.436Z,4
2018-12-20T05:44:21.444Z,3
2018-12-20T05:45:21.639Z,3
2018-12-20T05:46:21.483Z,3
2018-12-20T05:47:21.546Z,3
2018-12-20T05:48:21.386Z,3
2018-12-20T05:49:21.393Z,3
2018-12-20T05:50:21.421Z,3
2018-12-20T05:51:21.438Z,3
2018-12-20T05:52:21.417Z,3
2018-12-20T05:53:21.388Z,3
2018-12-20T05:54:21.385Z,3
2018-12-20T05:55:21.443Z,3
2018-12-20T05:56:21.742Z,3
2018-12-20T05:57:21.386Z,3
2018-12-20T05:58:21.396Z,3
2018-12-20T05:59:21.414Z,3
2018-12-20T06:00:21.504Z,3
2018-12-20T06:01:21.484Z,3
2018-12-20T06:02:21.384Z,3
2018-12-20T06:03:21.386Z,3
2018-12-20T06:04:21.525Z,3
2018-12-20T06:05:21.563Z,3
2018-12-20T06:06:21.420Z,3
2018-12-20T06:07:21.429Z,3
2018-12-20T06:08:21.386Z,3
2018-12-20T06:09:21.549Z,3
2018-12-20T06:10:21.668Z,3
2018-12-20T06:11:21.419Z,3
2018-12-20T06:12:21.482Z,3
2018-12-20T06:13:21.563Z,3
2018-12-20T06:14:21.534Z,3
2018-12-20T06:15:21.397Z,3
2018-12-20T06:16:21.780Z,3
2018-12-20T06:17:21.441Z,3
2018-12-20T06:18:21.508Z,3
2018-12-20T06:19:21.408Z,3
2018-12-20T06:20:21.560Z,3
2018-12-20T06:21:21.564Z,3
2018-12-20T06:22:21.740Z,3
2018-12-20T06:23:21.404Z,3
2018-12-20T06:24:21.385Z,3
2018-12-20T06:25:21.505Z,3
2018-12-20T06:26:21.399Z,4
2018-12-20T06:27:21.571Z,3
2018-12-20T06:28:21.402Z,4
2018-12-20T06:29:21.405Z,4
2018-12-20T06:30:21.387Z,3
2018-12-20T06:31:21.421Z,3
2018-12-20T06:32:21.491Z,3
2018-12-20T06:33:21.381Z,3
2018-12-20T06:34:21.404Z,4
2018-12-20T06:35:21.416Z,3
2018-12-20T06:36:21.379Z,3
2018-12-20T06:37:21.485Z,3
2018-12-20T06:38:21.403Z,5
2018-12-20T06:39:21.392Z,4
2018-12-20T06:42:21.430Z,3
2018-12-20T06:45:21.410Z,4
2018-12-20T06:46:21.709Z,4
2018-12-20T06:47:21.653Z,4
2018-12-20T06:48:21.750Z,4
2018-12-20T06:49:21.379Z,3
2018-12-20T06:50:21.445Z,3
2018-12-20T06:51:21.429Z,3
2018-12-20T06:52:21.377Z,7
2018-12-20T06:53:21.376Z,8
2018-12-20T06:54:21.382Z,7
2018-12-20T06:55:21.441Z,9
2018-12-20T06:56:21.479Z,6
2018-12-20T06:57:21.433Z,8
2018-12-20T06:58:21.381Z,7
2018-12-20T06:59:21.383Z,5
2018-12-20T07:00:21.386Z,5
2018-12-20T07:01:21.462Z,5
2018-12-20T07:02:21.404Z,5
2018-12-20T07:03:21.385Z,6
2018-12-20T07:04:21.427Z,6
2018-12-20T07:05:21.402Z,6
2018-12-20T07:06:21.505Z,5
2018-12-20T07:07:21.387Z,6
2018-12-20T07:08:21.384Z,7
2018-12-20T07:09:21.403Z,7
2018-12-20T07:10:21.380Z,6
2018-12-20T07:11:21.476Z,7
2018-12-20T07:12:21.378Z,6
2018-12-20T07:13:21.380Z,7
2018-12-20T07:14:21.395Z,5
2018-12-20T07:15:21.389Z,7
2018-12-20T07:16:29.112Z,7
2018-12-20T07:17:21.415Z,8
2018-12-20T07:18:21.448Z,8
2018-12-20T07:19:21.486Z,8
2018-12-20T07:20:21.403Z,7
2018-12-20T07:21:21.509Z,6
2018-12-20T07:22:21.641Z,6
2018-12-20T07:23:21.992Z,7
2018-12-20T07:24:21.398Z,8
2018-12-20T07:25:21.468Z,6
2018-12-20T07:26:21.838Z,5
2018-12-20T07:27:21.405Z,5
2018-12-20T07:28:21.485Z,5
2018-12-20T07:29:21.403Z,6
2018-12-20T07:30:21.436Z,6
2018-12-20T07:31:21.482Z,6
2018-12-20T07:32:25.294Z,5
2018-12-20T07:33:21.433Z,5
2018-12-20T07:34:21.395Z,5
2018-12-20T07:35:21.367Z,5
2018-12-20T07:36:21.465Z,5
2018-12-20T07:37:21.416Z,5
2018-12-20T07:38:21.384Z,5
2018-12-20T07:39:21.551Z,6
2018-12-20T07:40:21.371Z,6
2018-12-20T07:41:21.366Z,6
2018-12-20T07:42:21.373Z,6
2018-12-20T07:43:21.366Z,6
2018-12-20T07:44:21.431Z,5
2018-12-20T07:45:21.438Z,5
2018-12-20T07:46:21.367Z,5
2018-12-20T07:47:21.378Z,6
2018-12-20T07:48:21.403Z,6
2018-12-20T07:49:21.451Z,6
2018-12-20T07:50:21.398Z,5
2018-12-20T07:51:21.420Z,5
2018-12-20T07:52:21.397Z,5
2018-12-20T07:53:21.388Z,5
2018-12-20T07:54:21.452Z,5
2018-12-20T07:55:21.438Z,5
2018-12-20T07:56:21.546Z,5
2018-12-20T07:57:21.927Z,7
2018-12-20T07:58:22.082Z,6
2018-12-20T07:59:23.615Z,7
2018-12-20T08:00:21.519Z,7
2018-12-20T08:01:21.401Z,7
2018-12-20T08:02:21.449Z,6
2018-12-20T08:03:21.385Z,5
2018-12-20T08:04:21.365Z,5
2018-12-20T08:05:21.429Z,5
2018-12-20T08:06:21.574Z,5
2018-12-20T08:07:21.418Z,7
2018-12-20T08:08:21.351Z,5
2018-12-20T08:09:21.375Z,4
2018-12-20T08:10:21.422Z,4
2018-12-20T08:11:21.430Z,4
2018-12-20T08:12:22.513Z,6
2018-12-20T08:13:21.362Z,4
2018-12-20T08:14:21.383Z,5
2018-12-20T08:15:21.465Z,5
2018-12-20T08:16:21.414Z,4
2018-12-20T08:17:21.388Z,3
2018-12-20T08:18:21.387Z,3
2018-12-20T08:19:21.387Z,3
2018-12-20T08:20:21.407Z,4
2018-12-20T08:21:21.483Z,4
2018-12-20T08:22:21.459Z,4
2018-12-20T08:23:21.405Z,4
2018-12-20T08:24:21.602Z,5
2018-12-20T08:25:21.441Z,5
2018-12-20T08:26:21.443Z,5
2018-12-20T08:27:21.676Z,6
2018-12-20T08:28:21.513Z,4
2018-12-20T08:29:21.393Z,3
2018-12-20T08:30:22.000Z,5
2018-12-20T08:31:21.950Z,3
2018-12-20T08:32:21.395Z,4
2018-12-20T08:33:21.392Z,3
2018-12-20T08:34:21.396Z,3
2018-12-20T08:35:21.392Z,3
2018-12-20T08:36:21.390Z,3
2018-12-20T08:37:21.474Z,3
2018-12-20T08:38:21.403Z,3
2018-12-20T08:39:21.434Z,3
2018-12-20T08:40:21.390Z,3
2018-12-20T08:41:21.385Z,4
2018-12-20T08:42:21.503Z,3
2018-12-20T08:43:21.437Z,2
2018-12-20T08:44:21.395Z,3
2018-12-20T08:45:21.393Z,4
2018-12-20T08:46:21.931Z,4
2018-12-20T08:47:21.531Z,4
2018-12-20T08:48:21.526Z,5
2018-12-20T08:49:22.060Z,6
2018-12-20T08:50:21.808Z,6
2018-12-20T08:51:21.849Z,6
2018-12-20T08:52:24.366Z,7
2018-12-20T08:53:21.749Z,7
2018-12-20T08:54:23.243Z,8
2018-12-20T08:55:21.504Z,8
2018-12-20T08:56:21.415Z,7
2018-12-20T08:57:21.497Z,8
2018-12-20T08:58:23.540Z,9
2018-12-20T08:59:21.956Z,9
2018-12-20T09:00:23.676Z,8
2018-12-20T09:01:22.634Z,6
2018-12-20T09:02:21.373Z,5
2018-12-20T09:03:23.309Z,6
2018-12-20T09:04:25.668Z,8
2018-12-20T09:05:26.604Z,7
2018-12-20T09:06:22.868Z,7
2018-12-20T09:07:22.548Z,8
2018-12-20T09:08:21.403Z,8
2018-12-20T09:09:21.274Z,8
2018-12-20T09:10:21.265Z,8
2018-12-20T09:11:21.406Z,9
2018-12-20T09:12:22.640Z,8
2018-12-20T09:13:22.687Z,6
2018-12-20T09:14:21.277Z,5
2018-12-20T09:15:21.275Z,5
2018-12-20T09:16:21.478Z,6
2018-12-20T09:17:21.384Z,5
2018-12-20T09:18:21.283Z,5
2018-12-20T09:19:21.292Z,4
2018-12-20T09:20:21.703Z,5
2018-12-20T09:21:21.328Z,4
2018-12-20T09:22:21.311Z,4
2018-12-20T09:23:21.321Z,6
2018-12-20T09:24:21.282Z,5
2018-12-20T09:25:21.271Z,5
2018-12-20T09:26:21.333Z,5
2018-12-20T09:27:21.312Z,5
2018-12-20T09:28:21.425Z,6
2018-12-20T09:29:21.281Z,5
2018-12-20T09:30:21.395Z,5
2018-12-20T09:31:21.979Z,5
2018-12-20T09:32:21.356Z,5
2018-12-20T09:33:21.364Z,6
2018-12-20T09:34:22.187Z,5
2018-12-20T09:35:21.455Z,5
2018-12-20T09:36:21.499Z,5
2018-12-20T09:37:21.448Z,5
2018-12-20T09:38:21.792Z,6
2018-12-20T09:39:21.501Z,5
2018-12-20T09:40:21.481Z,5
2018-12-20T09:41:21.424Z,5
2018-12-20T09:42:21.464Z,6
2018-12-20T09:43:24.905Z,6
2018-12-20T09:44:21.391Z,5
2018-12-20T09:45:22.420Z,5
2018-12-20T09:46:21.473Z,5
2018-12-20T09:47:21.511Z,5
2018-12-20T09:48:21.406Z,5
2018-12-20T09:49:21.399Z,5
2018-12-20T09:50:21.406Z,5
2018-12-20T09:51:21.388Z,5
2018-12-20T09:52:21.464Z,5
2018-12-20T09:53:21.388Z,5
2018-12-20T09:54:21.391Z,5
2018-12-20T09:55:21.599Z,5
2018-12-20T09:56:21.390Z,5
2018-12-20T09:57:21.393Z,5
2018-12-20T09:58:21.386Z,5
2018-12-20T09:59:21.396Z,5
2018-12-20T10:00:21.543Z,5
2018-12-20T10:01:21.393Z,5
2018-12-20T10:02:21.411Z,5
2018-12-20T10:03:21.413Z,5
2018-12-20T10:04:21.416Z,5
2018-12-20T10:05:21.497Z,5
2018-12-20T10:06:23.228Z,6
2018-12-20T10:07:21.429Z,6
2018-12-20T10:08:21.413Z,5
2018-12-20T10:09:21.644Z,5
2018-12-20T10:10:21.410Z,5
2018-12-20T10:11:21.406Z,5
2018-12-20T10:12:22.401Z,5
2018-12-20T10:14:22.126Z,5
2018-12-20T10:15:22.085Z,5
2018-12-20T10:16:21.481Z,5
2018-12-20T10:17:21.474Z,6
2018-12-20T10:18:21.498Z,5
2018-12-20T10:19:21.413Z,5
2018-12-20T10:20:21.339Z,5
2018-12-20T10:21:21.963Z,5
2018-12-20T10:22:21.445Z,6
2018-12-20T10:23:21.391Z,6
2018-12-20T10:24:21.373Z,6
2018-12-20T10:25:21.344Z,6
2018-12-20T10:26:21.339Z,6
2018-12-20T10:27:21.340Z,6
2018-12-20T10:28:21.401Z,5
2018-12-20T10:29:21.361Z,5
2018-12-20T10:30:21.343Z,5
2018-12-20T10:31:21.408Z,5
2018-12-20T10:32:21.344Z,5
2018-12-20T10:33:22.538Z,6
2018-12-20T10:34:22.201Z,7
2018-12-20T10:35:22.916Z,6
2018-12-20T10:36:21.457Z,5
2018-12-20T10:37:21.658Z,5
2018-12-20T10:38:21.384Z,4
2018-12-20T10:39:21.349Z,4
2018-12-20T10:40:21.398Z,5
2018-12-20T10:41:23.920Z,5
2018-12-20T10:42:21.335Z,5
2018-12-20T10:43:21.534Z,5
2018-12-20T10:44:21.331Z,6
2018-12-20T10:45:21.385Z,5
2018-12-20T10:46:21.364Z,5
2018-12-20T10:47:28.761Z,7
2018-12-20T10:48:21.404Z,6
2018-12-20T10:49:21.737Z,7
2018-12-20T10:50:21.420Z,6
2018-12-20T10:51:21.349Z,6
2018-12-20T10:52:21.820Z,6
2018-12-20T10:53:21.414Z,5
2018-12-20T10:54:21.359Z,4
2018-12-20T10:55:21.401Z,4
2018-12-20T10:56:21.338Z,5
2018-12-20T10:57:22.451Z,5
2018-12-20T10:58:21.569Z,5
2018-12-20T10:59:21.342Z,6
2018-12-20T11:00:21.334Z,5
2018-12-20T11:01:21.335Z,5
2018-12-20T11:02:21.328Z,5
2018-12-20T11:03:21.367Z,5
2018-12-20T11:04:22.954Z,5
2018-12-20T11:05:22.761Z,4
2018-12-20T11:06:21.372Z,4
2018-12-20T11:07:21.339Z,4
2018-12-20T11:08:21.331Z,4
2018-12-20T11:09:21.484Z,4
2018-12-20T11:10:21.332Z,4
2018-12-20T11:11:22.256Z,4
2018-12-20T11:12:21.883Z,4
2018-12-20T11:13:21.416Z,5
2018-12-20T11:14:21.365Z,5
2018-12-20T11:15:21.384Z,5
2018-12-20T11:16:21.368Z,4
2018-12-20T11:17:21.376Z,4
2018-12-20T11:18:21.341Z,3
2018-12-20T11:19:21.361Z,3
2018-12-20T11:20:21.447Z,3
2018-12-20T11:21:21.356Z,3
2018-12-20T11:22:23.070Z,3
2018-12-20T11:23:21.346Z,3
2018-12-20T11:24:21.344Z,3
2018-12-20T11:25:21.414Z,3
2018-12-20T11:26:21.517Z,3
2018-12-20T11:27:21.341Z,3
2018-12-20T11:28:21.415Z,3
2018-12-20T11:29:21.604Z,3
2018-12-20T11:30:21.591Z,4
2018-12-20T11:31:23.190Z,4
2018-12-20T11:32:21.361Z,4
2018-12-20T11:33:21.375Z,4
2018-12-20T11:34:21.411Z,4
2018-12-20T11:35:21.338Z,4
2018-12-20T11:36:21.474Z,4
2018-12-20T11:37:21.371Z,4
2018-12-20T11:38:21.892Z,4
2018-12-20T11:39:21.389Z,4
2018-12-20T11:40:21.388Z,4
2018-12-20T11:41:21.419Z,4
2018-12-20T11:42:23.145Z,4
2018-12-20T11:43:23.648Z,5
2018-12-20T11:44:21.321Z,5
2018-12-20T11:45:21.390Z,5
2018-12-20T11:46:21.320Z,5
2018-12-20T11:47:21.347Z,5
2018-12-20T11:48:21.368Z,5
2018-12-20T11:49:21.561Z,6
2018-12-20T11:50:21.602Z,7
2018-12-20T11:51:21.370Z,5
2018-12-20T11:52:21.325Z,5
2018-12-20T11:53:21.640Z,6
2018-12-20T11:54:21.674Z,7
2018-12-20T11:55:24.962Z,7
2018-12-20T11:56:21.367Z,8
2018-12-20T11:57:21.334Z,10
2018-12-20T11:58:21.346Z,10
2018-12-20T11:59:23.298Z,12
2018-12-20T12:00:23.743Z,12
2018-12-20T12:01:22.668Z,14
2018-12-20T12:02:24.672Z,12
2018-12-20T12:03:23.099Z,13
2018-12-20T12:04:22.776Z,10
2018-12-20T12:05:21.281Z,6
2018-12-20T12:06:21.535Z,7
2018-12-20T12:07:22.138Z,6
2018-12-20T12:08:24.262Z,6
2018-12-20T12:09:21.376Z,6
2018-12-20T12:10:22.680Z,6
2018-12-20T12:11:22.291Z,6
2018-12-20T12:12:21.644Z,6
2018-12-20T12:13:21.588Z,6
2018-12-20T12:14:27.617Z,5
2018-12-20T12:15:21.386Z,4
2018-12-20T12:16:21.362Z,4
2018-12-20T12:17:21.319Z,4
2018-12-20T12:18:21.350Z,4
2018-12-20T12:19:21.422Z,5
2018-12-20T12:20:22.977Z,6
2018-12-20T12:21:23.385Z,5
2018-12-20T12:22:23.586Z,7
2018-12-20T12:23:21.542Z,5
2018-12-20T12:24:22.852Z,7
2018-12-20T12:25:21.508Z,5
2018-12-20T12:26:21.713Z,5
2018-12-20T12:27:28.764Z,6
2018-12-20T12:28:21.496Z,6
2018-12-20T12:29:21.897Z,7
2018-12-20T12:30:21.649Z,6
2018-12-20T12:31:22.675Z,5
2018-12-20T12:32:21.474Z,4
2018-12-20T12:33:21.703Z,4
2018-12-20T12:34:21.410Z,5
2018-12-20T12:35:21.524Z,6
2018-12-20T12:36:21.381Z,6
2018-12-20T12:37:21.370Z,5
2018-12-20T12:38:21.404Z,5
2018-12-20T12:39:22.189Z,6
2018-12-20T12:40:21.361Z,6
2018-12-20T12:41:21.373Z,6
2018-12-20T12:42:21.344Z,6
2018-12-20T12:43:21.407Z,6
2018-12-20T12:44:21.383Z,6
2018-12-20T12:45:23.032Z,6
2018-12-20T12:46:22.109Z,6
2018-12-20T12:47:21.349Z,5
2018-12-20T12:48:21.354Z,5
2018-12-20T12:49:21.361Z,5
2018-12-20T12:50:21.471Z,5
2018-12-20T12:51:21.354Z,4
2018-12-20T12:52:21.433Z,4
2018-12-20T12:53:21.370Z,5
2018-12-20T12:54:22.011Z,5
2018-12-20T12:55:21.645Z,5
2018-12-20T12:56:21.423Z,5
2018-12-20T12:57:22.407Z,4
2018-12-20T12:58:21.347Z,4
2018-12-20T12:59:21.390Z,4
2018-12-20T13:00:21.405Z,4
2018-12-20T13:01:21.405Z,5
2018-12-20T13:02:21.371Z,3
2018-12-20T13:03:21.378Z,3
2018-12-20T13:04:21.369Z,4
2018-12-20T13:05:21.361Z,4
2018-12-20T13:06:21.403Z,4
2018-12-20T13:07:21.542Z,4
2018-12-20T13:08:21.621Z,4
2018-12-20T13:09:21.424Z,4
2018-12-20T13:10:21.550Z,4
2018-12-20T13:11:21.400Z,4
2018-12-20T13:12:21.541Z,4
2018-12-20T13:13:21.408Z,4
2018-12-20T13:14:21.396Z,4
2018-12-20T13:15:21.362Z,4
2018-12-20T13:16:21.363Z,3
2018-12-20T13:17:21.353Z,3
2018-12-20T13:18:21.397Z,3
2018-12-20T13:19:21.697Z,4
2018-12-20T13:20:21.431Z,3
2018-12-20T13:21:21.420Z,4
2018-12-20T13:22:21.371Z,4
2018-12-20T13:23:21.360Z,4
2018-12-20T13:24:21.360Z,4
2018-12-20T13:25:21.427Z,5
2018-12-20T13:26:21.369Z,5
2018-12-20T13:27:21.455Z,5
2018-12-20T13:28:21.557Z,5
2018-12-20T13:31:21.405Z,4
2018-12-20T13:32:21.382Z,4
2018-12-20T13:33:21.362Z,5
2018-12-20T13:34:21.377Z,5
2018-12-20T13:35:21.372Z,5
2018-12-20T13:36:21.389Z,4
2018-12-20T13:37:21.403Z,6
2018-12-20T13:38:21.565Z,5
2018-12-20T13:39:21.376Z,4
2018-12-20T13:40:21.920Z,5
2018-12-20T13:41:21.818Z,6
2018-12-20T13:42:21.791Z,5
2018-12-20T13:43:23.027Z,4
2018-12-20T13:44:21.334Z,3
2018-12-20T13:45:21.379Z,3
2018-12-20T13:46:21.392Z,3
2018-12-20T13:47:21.348Z,4
2018-12-20T13:48:22.375Z,4
2018-12-20T13:49:21.354Z,4
2018-12-20T13:50:21.362Z,4
2018-12-20T13:51:21.441Z,4
2018-12-20T13:52:21.379Z,4
2018-12-20T13:53:21.396Z,4
2018-12-20T13:54:21.349Z,4
2018-12-20T13:55:21.743Z,6
2018-12-20T13:56:21.451Z,4
2018-12-20T13:57:23.528Z,5
2018-12-20T13:58:21.348Z,4
2018-12-20T13:59:21.382Z,4
2018-12-20T14:00:21.352Z,5
2018-12-20T14:01:21.615Z,5
2018-12-20T14:02:21.395Z,4
2018-12-20T14:03:22.159Z,5
2018-12-20T14:04:21.366Z,5
2018-12-20T14:05:21.343Z,4
2018-12-20T14:06:21.444Z,5
2018-12-20T14:07:26.350Z,4
2018-12-20T14:08:21.367Z,3
2018-12-20T14:09:21.373Z,3
2018-12-20T14:10:21.327Z,3
2018-12-20T14:11:21.799Z,4
2018-12-20T14:12:21.334Z,2
2018-12-20T14:13:21.390Z,3
2018-12-20T14:14:21.381Z,2
2018-12-20T14:15:21.333Z,3
2018-12-20T14:16:21.362Z,2
2018-12-20T14:17:21.369Z,2
2018-12-20T14:18:21.455Z,3
2018-12-20T14:19:21.366Z,3
2018-12-20T14:20:22.026Z,4
2018-12-20T14:21:21.424Z,2
2018-12-20T14:22:21.409Z,2
2018-12-20T14:23:21.361Z,2
2018-12-20T14:24:21.488Z,3
2018-12-20T14:25:21.437Z,3
2018-12-20T14:26:21.391Z,3
2018-12-20T14:27:22.527Z,3
2018-12-20T14:28:22.668Z,4
2018-12-20T14:29:21.674Z,3
2018-12-20T14:30:22.501Z,4
2018-12-20T14:31:21.550Z,4
2018-12-20T14:32:21.531Z,4
2018-12-20T14:33:23.145Z,3
2018-12-20T14:34:21.439Z,3
2018-12-20T14:35:21.795Z,5
2018-12-20T14:36:21.348Z,3
2018-12-20T14:37:21.701Z,5
2018-12-20T14:38:21.707Z,8
2018-12-20T14:39:21.919Z,8
2018-12-20T14:40:24.366Z,11
2018-12-20T14:41:22.052Z,12
2018-12-20T14:42:22.146Z,9
2018-12-20T14:43:22.589Z,12
2018-12-20T14:44:22.872Z,12
2018-12-20T14:45:22.236Z,13
2018-12-20T14:46:22.740Z,10
2018-12-20T14:47:22.860Z,9
2018-12-20T14:48:21.738Z,11
2018-12-20T14:49:25.682Z,13
2018-12-20T14:50:23.070Z,7
2018-12-20T14:51:23.368Z,7
2018-12-20T14:52:23.063Z,6
2018-12-20T14:53:21.746Z,6
2018-12-20T14:54:22.689Z,5
2018-12-20T14:55:21.363Z,5
2018-12-20T14:56:22.014Z,5